DAAG/ALG METAR and TAF weather

Enter ICAO airport designator
Station Type Date Time Source
DAAG METAR 2020/12/05 05:00 UTC NOAA

DAAG 050500Z 26012G24KT 8000 TS SCT020 FEW023CB BKN073 10/09 Q0999


Station Type Date Time Source
DAAG Decoded METAR 2020/12/05 05:00 UTC NOAA

Dar-El-Beida, Algeria (DAAG) 36-43N 003-15E 25M
Dec 05, 2020 - 12:00 AM EST / 2020.12.05 0500 UTC
Wind: from the W (260 degrees) at 14 MPH (12 KT) gusting to 28 MPH (24 KT):0
Visibility: 4 mile(s):0
Sky conditions: mostly cloudy
Weather: thunder; Cumulonimbus clouds observed
Temperature: 50 F (10 C)
Dew Point: 48 F (9 C)
Relative Humidity: 93%
Pressure (altimeter): 29.50 in. Hg (0999 hPa)
ob: DAAG 050500Z 26012G24KT 8000 TS SCT020 FEW023CB BKN073 10/09 Q0999
cycle: 5

Station Type Date Time Source
DAAG TAF 2020/12/04 18:33 UTC NOAA

TAF TAF DAAG 041700Z 0418/0518 28008KT 9999 FEW020 SCT040 BKN080 PROB40
TEMPO 0418/0420 24015G25KT FEW026CB
BECMG 0419/0423 8000 -RA FEW023TCU FEW026CB
TEMPO 0422/0508 4000 RA PROB40
TEMPO 0502/0506 28015G25KT 2000 TSRAGR BKN015
BECMG 0508/0512 NSW SCT020

Example: see airport list